Time;durP1;ratioP1;P1;durP2;ratioP2;P2;SDS_P1;SDS_P2;PMS_P1;PMS_P2;Temp;Humidity;BMP_temperature;BMP_pressure;BME280_temperature;BME280_humidity;BME280_pressure;Samples;Min_cycle;Max_cycle;Signal;HPM_P1;HPM_P2
2021/09/12 00:01:18;;;;;;;3.88;2.70;;;;;;;10.48;94.15;98818.34;5023666;28;20022;-67
2021/09/12 00:03:44;;;;;;;3.75;2.50;;;;;;;10.33;93.86;98820.38;5023547;28;20153;-67
2021/09/12 00:06:09;;;;;;;3.90;3.00;;;;;;;10.35;94.50;98819.44;5005896;28;20110;-67
2021/09/12 00:08:34;;;;;;;3.33;2.17;;;;;;;10.46;94.06;98821.91;5023724;28;20068;-67
2021/09/12 00:11:00;;;;;;;3.33;2.10;;;;;;;10.41;93.93;98819.34;5023806;28;20041;-67
2021/09/12 00:13:25;;;;;;;3.38;2.28;;;;;;;10.44;94.20;98816.69;5023531;28;20060;-67
2021/09/12 00:15:51;;;;;;;2.90;2.03;;;;;;;10.43;94.28;98814.06;5023535;28;20332;-67
2021/09/12 00:18:16;;;;;;;7.38;1.98;;;;;;;10.23;93.97;98818.78;5023499;28;20061;-67
2021/09/12 00:20:43;;;;;;;4.05;1.88;;;;;;;10.17;94.09;98813.59;5024437;28;20029;-67
2021/09/12 00:23:08;;;;;;;5.97;2.53;;;;;;;10.20;94.92;98811.81;5027052;28;20088;-67
2021/09/12 00:25:34;;;;;;;4.60;2.35;;;;;;;10.32;95.23;98802.84;5026941;28;20041;-67
2021/09/12 00:27:59;;;;;;;3.55;2.40;;;;;;;10.35;94.75;98802.81;5026947;28;20040;-67
2021/09/12 00:30:25;;;;;;;2.97;2.10;;;;;;;10.30;94.01;98805.50;5026879;28;20037;-67
2021/09/12 00:32:50;;;;;;;4.35;2.20;;;;;;;10.04;93.95;98806.75;5026823;28;20026;-67
2021/09/12 00:35:16;;;;;;;2.67;1.90;;;;;;;10.15;94.07;98805.75;5026803;28;20342;-67
2021/09/12 00:37:43;;;;;;;2.95;2.20;;;;;;;10.13;93.68;98809.28;5026758;28;20393;-67
2021/09/12 00:40:09;;;;;;;3.95;1.77;;;;;;;10.09;94.03;98802.31;5026705;28;20104;-67
2021/09/12 00:42:35;;;;;;;3.05;1.60;;;;;;;10.10;94.51;98801.44;5026716;28;20093;-67
2021/09/12 00:45:00;;;;;;;2.53;1.73;;;;;;;9.98;94.22;98806.84;5026550;28;20080;-67
2021/09/12 00:47:26;;;;;;;5.68;1.83;;;;;;;9.88;94.56;98808.75;5026587;28;20028;-67
2021/09/12 00:49:51;;;;;;;6.35;2.28;;;;;;;9.81;94.94;98806.22;5026533;28;20075;-67
2021/09/12 00:52:18;;;;;;;6.45;2.42;;;;;;;9.94;95.05;98800.75;5026445;28;20316;-67
2021/09/12 00:54:44;;;;;;;3.03;1.98;;;;;;;10.06;94.95;98803.25;5026400;28;20050;-67
2021/09/12 00:57:11;;;;;;;3.13;2.05;;;;;;;10.09;94.80;98799.69;5026375;28;20032;-67
2021/09/12 00:59:39;;;;;;;3.15;2.00;;;;;;;10.11;94.49;98797.91;5026322;28;20105;-67
2021/09/12 01:02:07;;;;;;;4.47;1.90;;;;;;;9.97;94.08;98802.47;5026283;28;20025;-67
2021/09/12 01:04:34;;;;;;;3.80;1.90;;;;;;;9.84;94.61;98798.28;5026007;28;20759;-67
2021/09/12 01:07:04;;;;;;;2.67;1.92;;;;;;;9.90;94.43;98795.56;5026231;28;20014;-67
2021/09/12 01:09:31;;;;;;;4.32;2.33;;;;;;;9.77;94.29;98801.88;5026151;28;20094;-67
2021/09/12 01:11:57;;;;;;;3.25;1.92;;;;;;;9.66;94.50;98798.53;5026355;28;20025;-67
2021/09/12 01:14:27;;;;;;;2.60;1.67;;;;;;;9.66;95.13;98803.78;5026075;28;20264;-67
2021/09/12 01:16:54;;;;;;;4.70;1.90;;;;;;;9.76;95.02;98800.13;5026311;28;20379;-67
2021/09/12 01:19:19;;;;;;;2.38;1.50;;;;;;;9.80;94.78;98797.44;5025958;28;20034;-67
2021/09/12 01:21:45;;;;;;;5.68;2.05;;;;;;;9.87;95.27;98795.63;5025927;28;20021;-67
2021/09/12 01:24:11;;;;;;;5.35;1.80;;;;;;;9.67;93.69;98795.00;5025817;28;20081;-67
2021/09/12 01:26:37;;;;;;;3.85;1.95;;;;;;;9.57;93.78;98796.00;5025878;28;20037;-67
2021/09/12 01:29:02;;;;;;;2.10;1.80;;;;;;;9.72;94.39;98799.34;5025741;28;20026;-67
2021/09/12 01:31:31;;;;;;;3.05;1.85;;;;;;;9.72;94.62;98798.44;5025526;28;20026;-67
2021/09/12 01:33:57;;;;;;;3.63;2.08;;;;;;;9.75;94.46;98787.91;5025681;28;20026;-67
2021/09/12 01:36:23;;;;;;;7.43;2.53;;;;;;;9.63;94.12;98788.06;5025644;28;20022;-67
2021/09/12 01:38:48;;;;;;;3.30;2.00;;;;;;;9.49;94.11;98790.00;5025637;28;20079;-67
2021/09/12 01:41:14;;;;;;;3.83;2.22;;;;;;;9.46;94.60;98800.56;5025536;28;20056;-67
2021/09/12 01:43:49;;;;;;;3.05;2.17;;;;;;;9.53;94.80;98781.19;5025503;28;20125;-67
2021/09/12 01:46:16;;;;;;;4.78;2.38;;;;;;;9.58;94.96;98781.97;5025384;28;20369;-67
2021/09/12 01:48:42;;;;;;;3.05;2.10;;;;;;;9.49;94.32;98782.13;5025398;28;20068;-67
2021/09/12 01:51:07;;;;;;;3.88;1.98;;;;;;;9.52;94.96;98784.72;5025373;28;20022;-67
2021/09/12 01:53:33;;;;;;;2.75;2.10;;;;;;;9.47;94.64;98781.25;5025317;28;20084;-67
2021/09/12 01:55:59;;;;;;;5.45;2.20;;;;;;;9.57;94.88;98778.50;5025297;28;20033;-67
2021/09/12 01:58:29;;;;;;;3.55;1.65;;;;;;;9.59;95.18;98775.84;5025515;28;20022;-67
2021/09/12 02:00:54;;;;;;;3.78;2.10;;;;;;;9.59;95.05;98775.84;5025337;28;20029;-67
2021/09/12 02:03:20;;;;;;;3.15;2.13;;;;;;;9.61;94.59;98774.06;5025073;28;20085;-67
2021/09/12 02:05:45;;;;;;;7.10;2.38;;;;;;;9.45;94.32;98777.75;5024906;28;20033;-67
2021/09/12 02:08:11;;;;;;;5.82;2.50;;;;;;;9.44;93.96;98787.44;5025059;28;20033;-67
2021/09/12 02:10:36;;;;;;;3.35;2.30;;;;;;;9.40;94.10;98790.97;5025017;28;20029;-67
2021/09/12 02:13:01;;;;;;;3.22;2.55;;;;;;;9.37;94.24;98791.03;5025020;28;20267;-67
2021/09/12 02:15:27;;;;;;;2.85;2.00;;;;;;;9.47;93.75;98797.03;5024955;28;20025;-67
2021/09/12 02:17:52;;;;;;;4.45;2.90;;;;;;;9.42;94.85;98793.56;5024890;28;20048;-67
2021/09/12 02:20:18;;;;;;;3.95;2.13;;;;;;;9.38;94.69;98791.88;5024880;28;20026;-67
2021/09/12 02:22:43;;;;;;;2.60;1.70;;;;;;;9.42;94.66;98790.94;5024813;28;20033;-67
2021/09/12 02:25:09;;;;;;;2.97;2.00;;;;;;;9.47;95.10;98794.41;5024947;28;20101;-67
2021/09/12 02:27:34;;;;;;;3.60;1.88;;;;;;;9.28;94.64;98790.25;5024709;28;20034;-67
2021/09/12 02:30:00;;;;;;;2.40;1.50;;;;;;;9.40;95.24;98795.38;5024737;28;20178;-67
2021/09/12 02:32:26;;;;;;;2.08;1.70;;;;;;;9.45;94.71;98788.28;5024644;28;20029;-67
2021/09/12 02:34:51;;;;;;;2.40;1.88;;;;;;;9.44;94.48;98787.44;5024596;28;20028;-67
2021/09/12 02:37:17;;;;;;;2.05;1.67;;;;;;;9.48;94.46;98783.00;5024536;28;20026;-67
2021/09/12 02:39:43;;;;;;;2.53;1.83;;;;;;;9.45;94.13;98783.91;5024567;28;20217;-67
2021/09/12 02:42:08;;;;;;;2.80;2.33;;;;;;;9.23;94.40;98792.03;5007173;28;20321;-67
2021/09/12 02:44:33;;;;;;;4.50;2.22;;;;;;;9.23;94.34;98786.78;5023803;28;20040;-67
2021/09/12 02:46:59;;;;;;;3.83;2.28;;;;;;;9.20;94.75;98786.88;5024427;28;20026;-67
2021/09/12 02:49:24;;;;;;;3.55;2.33;;;;;;;9.14;95.24;98787.78;5024390;28;20363;-67
2021/09/12 02:51:50;;;;;;;4.75;2.00;;;;;;;9.09;94.51;98778.22;5024595;28;20033;-67
2021/09/12 02:54:15;;;;;;;3.13;1.95;;;;;;;9.11;94.47;98781.72;5024318;28;20026;-67
2021/09/12 02:56:40;;;;;;;3.83;2.03;;;;;;;9.24;94.85;98776.28;5024304;28;20048;-67
2021/09/12 02:59:06;;;;;;;5.60;2.10;;;;;;;9.31;94.74;98779.72;5024256;28;20025;-67
2021/09/12 03:01:31;;;;;;;3.13;1.85;;;;;;;9.23;94.88;98773.66;5024210;28;20036;-67
2021/09/12 03:03:57;;;;;;;4.75;1.92;;;;;;;9.25;95.15;98774.53;5024129;28;20026;-67
2021/09/12 03:06:22;;;;;;;14.07;2.50;;;;;;;9.20;93.81;98776.34;5023908;28;20050;-67
2021/09/12 03:08:48;;;;;;;3.15;1.92;;;;;;;9.21;94.13;98773.69;5024106;28;20022;-67
2021/09/12 03:11:13;;;;;;;3.00;1.95;;;;;;;9.24;94.37;98772.81;5006719;28;20030;-67
2021/09/12 03:13:38;;;;;;;8.60;2.58;;;;;;;9.21;94.39;98770.22;5024111;28;20379;-67
2021/09/12 03:16:04;;;;;;;6.47;2.15;;;;;;;9.05;94.16;98773.91;5024041;28;20026;-67
2021/09/12 03:18:29;;;;;;;4.93;2.03;;;;;;;9.00;95.08;98779.19;5024023;28;20222;-67
2021/09/12 03:20:55;;;;;;;2.95;2.10;;;;;;;9.00;94.81;98773.06;5024018;28;20085;-67
2021/09/12 03:23:20;;;;;;;6.82;1.98;;;;;;;8.94;94.57;98773.13;5023953;28;20033;-67
2021/09/12 03:25:46;;;;;;;2.58;1.80;;;;;;;8.92;94.25;98769.66;5023916;28;20033;-67
2021/09/12 03:28:11;;;;;;;4.55;2.10;;;;;;;8.88;94.91;98767.94;5023972;28;20030;-67
2021/09/12 03:30:37;;;;;;;3.45;2.00;;;;;;;9.02;95.55;98766.06;5023971;28;20044;-67
2021/09/12 03:33:02;;;;;;;4.60;2.00;;;;;;;9.07;95.77;98767.72;5023907;28;20030;-67
2021/09/12 03:35:28;;;;;;;2.10;1.73;;;;;;;9.08;94.97;98766.00;5023923;28;20029;-67
2021/09/12 03:37:53;;;;;;;2.53;1.80;;;;;;;9.05;95.58;98761.63;5023903;28;20026;-67
2021/09/12 03:40:19;;;;;;;9.15;1.77;;;;;;;9.10;94.58;98764.19;5006364;28;20048;-67
2021/09/12 03:42:44;;;;;;;2.83;1.77;;;;;;;9.07;93.94;98761.59;5023830;28;20081;-67
2021/09/12 03:45:10;;;;;;;2.50;1.80;;;;;;;9.07;94.02;98758.97;5023810;28;20073;-67
2021/09/12 03:47:35;;;;;;;3.30;1.80;;;;;;;9.01;93.63;98751.19;5023838;28;20084;-67
2021/09/12 03:50:01;;;;;;;2.42;2.00;;;;;;;8.95;94.23;98753.88;5023805;28;20026;-67
2021/09/12 03:52:26;;;;;;;3.35;1.98;;;;;;;8.88;95.48;98750.44;5023750;28;20367;-67
2021/09/12 03:54:52;;;;;;;11.18;2.38;;;;;;;8.90;95.69;98753.06;5025021;28;20335;-67
2021/09/12 03:57:17;;;;;;;6.13;1.98;;;;;;;8.98;95.83;98751.22;5027551;28;20340;-67
2021/09/12 03:59:42;;;;;;;5.60;2.13;;;;;;;8.99;95.19;98750.34;5027539;28;20026;-67
2021/09/12 04:02:08;;;;;;;7.97;2.22;;;;;;;9.05;94.93;98755.50;5027430;28;20022;-67
2021/09/12 04:04:33;;;;;;;4.38;2.22;;;;;;;8.88;94.55;98752.19;5027085;28;20069;-67
2021/09/12 04:06:58;;;;;;;5.97;3.05;;;;;;;8.85;95.08;98762.75;5027396;28;20325;-67
2021/09/12 04:09:24;;;;;;;3.42;2.28;;;;;;;8.82;94.48;98757.53;5027287;28;20030;-67
2021/09/12 04:11:49;;;;;;;4.78;2.08;;;;;;;8.86;94.44;98754.81;5027228;28;20026;-67
2021/09/12 04:14:15;;;;;;;3.38;2.08;;;;;;;8.88;94.83;98760.94;5027194;28;20090;-67
2021/09/12 04:16:40;;;;;;;2.83;2.00;;;;;;;8.92;94.55;98760.00;5027208;28;20026;-67
2021/09/12 04:19:06;;;;;;;2.47;2.00;;;;;;;8.99;94.48;98758.22;5027129;28;20025;-67
2021/09/12 04:21:31;;;;;;;2.38;1.80;;;;;;;8.97;93.87;98767.84;5027051;28;20022;-67
2021/09/12 04:23:57;;;;;;;2.35;1.90;;;;;;;8.74;94.50;98755.81;5027044;28;20037;-67
2021/09/12 04:26:22;;;;;;;2.47;1.90;;;;;;;8.71;94.53;98761.09;5026936;28;20321;-67
2021/09/12 04:28:48;;;;;;;2.78;2.05;;;;;;;8.75;95.08;98762.84;5026968;28;20057;-67
2021/09/12 04:31:13;;;;;;;3.85;1.95;;;;;;;8.78;93.97;98762.81;5026929;28;20040;-67
2021/09/12 04:33:39;;;;;;;5.72;2.10;;;;;;;8.68;94.18;98760.28;5026861;28;20347;-67
2021/09/12 04:36:04;;;;;;;4.00;1.80;;;;;;;8.62;94.30;98763.84;5026786;28;20029;-67
2021/09/12 04:38:30;;;;;;;2.78;2.00;;;;;;;8.67;94.74;98769.06;5026773;28;20225;-67
2021/09/12 04:40:55;;;;;;;3.03;1.73;;;;;;;8.63;94.25;98768.19;5026708;28;20033;-67
2021/09/12 04:43:21;;;;;;;3.03;2.13;;;;;;;8.69;94.54;98773.41;5026674;28;20056;-67
2021/09/12 04:45:46;;;;;;;3.10;2.13;;;;;;;8.64;93.92;98775.19;5026527;28;20017;-67
2021/09/12 04:48:11;;;;;;;2.80;2.10;;;;;;;8.61;95.29;98769.97;5026580;28;20053;-67
2021/09/12 04:50:37;;;;;;;5.57;2.10;;;;;;;8.67;94.79;98769.91;5026560;28;20029;-67
2021/09/12 04:53:02;;;;;;;9.27;2.47;;;;;;;8.56;94.88;98766.53;5026485;28;20025;-67
2021/09/12 04:55:28;;;;;;;3.90;2.10;;;;;;;8.64;95.34;98767.31;5026424;28;20018;-67
2021/09/12 04:57:53;;;;;;;6.15;2.28;;;;;;;8.65;94.38;98766.44;5026396;28;20021;-67
2021/09/12 05:00:18;;;;;;;6.80;2.30;;;;;;;8.65;94.39;98766.44;5026344;28;20072;-67
2021/09/12 05:02:44;;;;;;;2.97;2.22;;;;;;;8.66;94.88;98762.94;5026232;28;20029;-67
2021/09/12 05:05:10;;;;;;;4.80;2.60;;;;;;;8.61;94.69;98759.47;5026030;28;20068;-67
2021/09/12 05:07:35;;;;;;;3.53;2.25;;;;;;;8.62;94.48;98760.34;5025610;28;20105;-67
2021/09/12 05:10:01;;;;;;;2.63;2.10;;;;;;;8.71;94.64;98760.25;5026203;28;20093;-67
2021/09/12 05:12:28;;;;;;;3.70;2.30;;;;;;;8.69;94.14;98762.91;5026114;28;20033;-67
2021/09/12 05:14:55;;;;;;;2.10;1.88;;;;;;;8.75;94.23;98765.47;5026344;28;20194;-67
2021/09/12 05:17:20;;;;;;;5.28;2.03;;;;;;;8.72;94.12;98768.13;5026040;28;20100;-67
2021/09/12 05:19:47;;;;;;;3.92;2.22;;;;;;;8.73;93.52;98764.59;5025983;28;20033;-67
2021/09/12 05:22:12;;;;;;;4.10;2.08;;;;;;;8.69;93.98;98768.16;5025946;28;20072;-67
2021/09/12 05:24:38;;;;;;;6.90;2.00;;;;;;;8.72;94.36;98768.13;5025834;28;20025;-67
2021/09/12 05:27:03;;;;;;;2.28;1.80;;;;;;;8.80;93.54;98770.66;5025829;28;20084;-67
2021/09/12 05:29:29;;;;;;;2.38;2.08;;;;;;;8.72;94.15;98773.38;5025825;28;20256;-67
2021/09/12 05:31:54;;;;;;;2.67;2.00;;;;;;;8.70;94.23;98775.13;5025733;28;20026;-67
2021/09/12 05:34:20;;;;;;;2.55;1.98;;;;;;;8.64;93.93;98775.19;5025622;28;20032;-67
2021/09/12 05:36:45;;;;;;;2.17;1.90;;;;;;;8.69;94.61;98773.41;5025653;28;20026;-67
2021/09/12 05:39:11;;;;;;;2.13;1.67;;;;;;;8.91;94.51;98767.91;5025640;28;20037;-67
2021/09/12 05:41:36;;;;;;;5.25;1.85;;;;;;;9.28;93.53;98774.50;5025561;28;20033;-67
2021/09/12 05:44:02;;;;;;;3.45;1.90;;;;;;;9.67;92.80;98776.59;5025524;28;20297;-67
2021/09/12 05:46:28;;;;;;;3.17;1.50;;;;;;;10.05;91.76;98767.28;5025359;28;20221;-67
2021/09/12 05:48:53;;;;;;;2.55;1.70;;;;;;;10.35;91.14;98771.25;5025427;28;20034;-67
2021/09/12 05:51:18;;;;;;;1.98;1.65;;;;;;;10.85;89.26;98779.13;5025390;28;20026;-67
2021/09/12 05:53:44;;;;;;;4.78;1.70;;;;;;;11.02;88.21;98781.44;5025347;28;20089;-67
2021/09/12 05:56:09;;;;;;;2.03;1.60;;;;;;;11.38;86.87;98780.72;5025292;28;20029;-67
2021/09/12 05:58:35;;;;;;;1.35;1.20;;;;;;;11.82;84.76;98773.66;5025270;28;20026;-67
2021/09/12 06:01:00;;;;;;;2.92;1.30;;;;;;;12.20;82.93;98778.94;5007676;28;20076;-67
2021/09/12 06:03:26;;;;;;;1.80;1.38;;;;;;;12.38;82.92;98778.50;5025090;28;20313;-67
2021/09/12 06:05:51;;;;;;;8.20;1.58;;;;;;;12.82;80.86;98782.66;5024922;28;20053;-67
2021/09/12 06:08:16;;;;;;;2.03;1.27;;;;;;;13.21;79.19;98789.56;5025072;28;20021;-67
2021/09/12 06:10:42;;;;;;;1.42;1.33;;;;;;;13.38;79.52;98789.09;5025054;28;20085;-67
2021/09/12 06:13:07;;;;;;;4.20;1.60;;;;;;;13.84;77.43;98781.56;5025025;28;20022;-67
2021/09/12 06:15:33;;;;;;;2.15;1.20;;;;;;;13.92;76.01;98784.84;5024954;28;20102;-67
2021/09/12 06:17:58;;;;;;;2.75;1.58;;;;;;;14.25;75.52;98775.91;5024120;28;20085;-67
2021/09/12 06:20:24;;;;;;;1.65;1.27;;;;;;;14.47;75.75;98779.59;5024811;28;20072;-67
2021/09/12 06:22:51;;;;;;;2.15;1.38;;;;;;;14.93;75.90;98785.06;5024871;28;20026;-67
2021/09/12 06:25:17;;;;;;;3.58;1.17;;;;;;;15.01;73.71;98783.91;5024828;28;20030;-67
2021/09/12 06:27:44;;;;;;;3.88;1.40;;;;;;;15.59;72.65;98780.06;5024777;28;20313;-67
2021/09/12 06:30:11;;;;;;;2.03;1.42;;;;;;;15.70;72.82;98783.19;5025006;28;20026;-67
2021/09/12 06:32:36;;;;;;;1.85;1.38;;;;;;;16.39;70.50;98775.13;5024657;28;20032;-67
2021/09/12 06:35:03;;;;;;;1.88;1.33;;;;;;;16.40;70.70;98782.19;5024621;28;20053;-67
2021/09/12 06:37:28;;;;;;;3.85;1.80;;;;;;;16.51;72.24;98785.31;5024605;28;20029;-67
2021/09/12 06:39:54;;;;;;;2.45;1.77;;;;;;;16.97;70.43;98785.13;5024564;28;20221;-67
2021/09/12 06:42:19;;;;;;;3.35;1.60;;;;;;;16.30;73.48;98785.28;5024507;28;20033;-67
2021/09/12 06:44:45;;;;;;;3.00;1.70;;;;;;;17.20;71.57;98782.34;5024433;28;20025;-67
2021/09/12 06:47:10;;;;;;;5.90;2.17;;;;;;;17.54;71.09;98786.22;5024736;28;20055;-67
2021/09/12 06:49:36;;;;;;;2.70;2.00;;;;;;;18.23;68.78;98782.97;5024431;28;20025;-67
2021/09/12 06:52:01;;;;;;;2.50;2.00;;;;;;;18.25;68.95;98781.06;5024363;28;20025;-67
2021/09/12 06:54:27;;;;;;;4.72;2.08;;;;;;;18.06;69.95;98780.22;5024336;28;20022;-65
2021/09/12 06:56:53;;;;;;;3.83;2.10;;;;;;;18.53;69.37;98781.50;5024275;28;20030;-65
2021/09/12 06:59:18;;;;;;;3.33;2.22;;;;;;;19.21;65.43;98786.94;5024296;28;20037;-65
2021/09/12 07:01:43;;;;;;;2.90;1.98;;;;;;;19.69;63.97;98789.75;5024246;28;20044;-65
2021/09/12 07:04:09;;;;;;;3.03;2.00;;;;;;;19.71;63.94;98793.16;5006494;28;20338;-65
2021/09/12 07:06:34;;;;;;;5.95;2.47;;;;;;;20.06;64.19;98786.78;5024123;28;20030;-65
2021/09/12 07:09:00;;;;;;;4.22;2.65;;;;;;;20.78;61.91;98785.34;5024147;28;20080;-65
2021/09/12 07:11:25;;;;;;;15.00;3.08;;;;;;;19.78;63.89;98788.38;5024137;28;20313;-65
2021/09/12 07:13:51;;;;;;;4.25;2.40;;;;;;;20.44;64.85;98785.53;5024179;28;20114;-65
2021/09/12 07:16:16;;;;;;;4.10;2.25;;;;;;;20.88;61.80;98775.00;5024143;28;20085;-65
2021/09/12 07:18:42;;;;;;;4.93;2.22;;;;;;;21.51;60.79;98781.03;5024096;28;20313;-65
2021/09/12 07:21:07;;;;;;;4.15;2.08;;;;;;;21.46;62.97;98783.09;5024047;28;20018;-65
2021/09/12 07:23:33;;;;;;;5.10;1.88;;;;;;;21.31;61.61;98784.91;5024012;28;20022;-65
2021/09/12 07:25:58;;;;;;;5.78;2.50;;;;;;;21.98;60.99;98787.00;5023883;28;20018;-65
2021/09/12 07:28:24;;;;;;;6.65;2.88;;;;;;;22.25;60.36;98786.13;5023986;28;20032;-65
2021/09/12 07:30:49;;;;;;;2.83;2.28;;;;;;;22.43;59.24;98792.16;5026924;28;20028;-65
2021/09/12 07:33:15;;;;;;;5.90;2.78;;;;;;;22.24;59.58;98794.28;5028012;28;20022;-65
2021/09/12 07:35:40;;;;;;;4.63;2.20;;;;;;;23.19;58.34;98802.22;5028019;28;20174;-65
2021/09/12 07:38:06;;;;;;;2.97;2.25;;;;;;;23.53;57.14;98801.69;5028159;28;20068;-65
2021/09/12 07:40:31;;;;;;;5.07;2.13;;;;;;;23.44;58.25;98801.50;5027866;28;20025;-65
2021/09/12 07:42:57;;;;;;;4.47;2.25;;;;;;;24.34;56.23;98795.91;5028048;28;20026;-65
2021/09/12 07:45:22;;;;;;;3.40;2.10;;;;;;;24.20;55.25;98801.41;5027748;28;20337;-65
2021/09/12 07:47:48;;;;;;;8.15;2.85;;;;;;;23.43;58.81;98806.00;5027994;28;20021;-65
2021/09/12 07:50:13;;;;;;;7.13;2.40;;;;;;;24.54;54.92;98798.00;5010268;28;20024;-65
2021/09/12 07:52:44;;;;;;;3.97;2.47;;;;;;;24.89;56.17;98788.22;5027640;28;20089;-65
2021/09/12 07:55:12;;;;;;;4.70;2.53;;;;;;;25.33;55.00;98797.47;5027635;28;20393;-65
2021/09/12 07:57:38;;;;;;;8.43;2.53;;;;;;;25.44;52.96;98800.25;5027557;28;20057;-65
2021/09/12 08:00:05;;;;;;;5.55;2.20;;;;;;;25.41;52.89;98797.78;5027507;28;20259;-65
2021/09/12 08:02:30;;;;;;;3.20;2.30;;;;;;;24.81;55.06;98800.53;5027341;28;20283;-65
2021/09/12 08:04:55;;;;;;;3.58;2.22;;;;;;;25.41;54.32;98800.47;5027171;28;20038;-65
2021/09/12 08:07:21;;;;;;;4.95;2.25;;;;;;;25.40;53.71;98799.59;5027360;28;20021;-65
2021/09/12 08:09:46;;;;;;;5.53;2.50;;;;;;;26.08;52.96;98792.44;5027316;28;20260;-65
2021/09/12 08:12:12;;;;;;;4.22;2.70;;;;;;;25.69;53.05;98800.06;5027252;28;20021;-65
2021/09/12 08:14:37;;;;;;;4.45;2.65;;;;;;;25.35;54.30;98800.94;5027227;28;20045;-65
2021/09/12 08:17:03;;;;;;;4.10;2.63;;;;;;;25.49;55.10;98798.91;5027209;28;20325;-65
2021/09/12 08:19:28;;;;;;;4.85;2.53;;;;;;;25.95;52.95;98802.44;5027161;28;20321;-65
2021/09/12 08:21:54;;;;;;;3.25;2.45;;;;;;;26.31;52.66;98804.06;5027085;28;20029;-65
2021/09/12 08:24:19;;;;;;;3.53;2.45;;;;;;;25.88;53.58;98805.75;5027038;28;20221;-65
2021/09/12 08:26:45;;;;;;;5.07;2.47;;;;;;;25.56;53.81;98805.53;5026947;28;20022;-65
2021/09/12 08:29:10;;;;;;;6.97;2.25;;;;;;;26.94;50.94;98809.66;5026950;28;20029;-65
2021/09/12 08:31:35;;;;;;;4.10;2.40;;;;;;;27.33;49.60;98810.91;5026909;28;20348;-65
2021/09/12 08:34:01;;;;;;;5.38;2.38;;;;;;;27.54;49.84;98814.47;5026870;28;20030;-65
2021/09/12 08:36:26;;;;;;;6.72;2.70;;;;;;;27.67;48.33;98809.75;5026812;28;20041;-65
2021/09/12 08:38:52;;;;;;;3.33;2.10;;;;;;;28.08;48.02;98810.63;5026770;28;20248;-65
2021/09/12 08:41:19;;;;;;;3.38;1.90;;;;;;;28.25;45.57;98815.41;5025729;28;20026;-66
2021/09/12 08:43:46;;;;;;;7.43;2.42;;;;;;;26.68;47.40;98816.34;5026713;28;20028;-66
2021/09/12 08:46:14;;;;;;;3.08;1.83;;;;;;;27.30;48.20;98816.59;5026559;28;20040;-66
2021/09/12 08:48:39;;;;;;;5.10;2.13;;;;;;;27.75;48.04;98818.94;5026605;28;20025;-66
2021/09/12 08:51:05;;;;;;;4.60;2.42;;;;;;;27.42;48.15;98816.38;5026553;28;20033;-66
2021/09/12 08:53:31;;;;;;;4.63;2.40;;;;;;;28.07;45.69;98805.34;5026524;28;20077;-66
2021/09/12 08:55:56;;;;;;;5.53;2.38;;;;;;;28.25;46.65;98795.63;5026698;28;20030;-66
2021/09/12 08:58:23;;;;;;;3.55;2.15;;;;;;;28.59;46.69;98795.19;5026405;28;20347;-66
2021/09/12 09:00:48;;;;;;;5.53;2.42;;;;;;;27.41;47.38;98803.88;5026422;28;20195;-66
2021/09/12 09:03:14;;;;;;;6.55;2.22;;;;;;;27.79;44.88;98797.88;5026285;28;20036;-66
2021/09/12 09:05:42;;;;;;;5.03;2.38;;;;;;;28.03;45.48;98791.22;5026066;28;20205;-66
2021/09/12 09:08:15;;;;;;;3.58;2.00;;;;;;;27.57;45.55;98801.56;5026254;28;20049;-66
2021/09/12 09:10:51;;;;;;;3.22;2.05;;;;;;;26.84;47.55;98797.91;5026220;28;20064;-66
2021/09/12 09:13:35;;;;;;;5.38;2.10;;;;;;;26.64;47.76;98804.09;5026150;28;20025;-66
2021/09/12 09:16:03;;;;;;;2.95;1.77;;;;;;;27.59;46.65;98801.44;5026405;28;20034;-66
2021/09/12 09:18:40;;;;;;;4.20;2.05;;;;;;;28.03;46.34;98815.56;5026027;28;20026;-66
2021/09/12 09:21:25;;;;;;;3.88;1.95;;;;;;;28.01;45.67;98809.44;5025998;28;20037;-66
2021/09/12 09:24:12;;;;;;;4.90;2.00;;;;;;;28.56;45.61;98800.03;5025984;28;20048;-66
2021/09/12 09:26:40;;;;;;;3.03;1.92;;;;;;;28.81;45.63;98805.81;5025808;28;20033;-66
2021/09/12 09:29:05;;;;;;;3.35;2.10;;;;;;;28.33;44.78;98802.06;5025816;28;20080;-66
2021/09/12 09:31:31;;;;;;;6.32;2.25;;;;;;;27.63;47.26;98809.16;5025814;28;20033;-66
2021/09/12 09:34:12;;;;;;;5.38;2.28;;;;;;;27.40;47.76;98801.28;5026001;28;20025;-66
2021/09/12 09:36:38;;;;;;;4.50;2.13;;;;;;;28.63;45.52;98802.03;5025721;28;20021;-66
2021/09/12 09:39:03;;;;;;;5.55;2.15;;;;;;;29.04;45.73;98792.88;5025631;28;20379;-66
2021/09/12 09:41:36;;;;;;;4.07;2.10;;;;;;;28.74;46.83;98801.94;5025549;28;20021;-66
2021/09/12 09:44:07;;;;;;;4.40;2.15;;;;;;;28.91;45.07;98800.41;5025599;28;20110;-67
2021/09/12 09:46:34;;;;;;;5.32;2.30;;;;;;;28.18;44.59;98795.28;5025457;28;20037;-66
2021/09/12 09:49:19;;;;;;;4.20;2.20;;;;;;;28.37;45.04;98789.94;5025415;28;20344;-66
2021/09/12 09:51:51;;;;;;;4.35;2.05;;;;;;;28.87;44.95;98789.00;5025479;28;20329;-66
2021/09/12 09:54:17;;;;;;;3.88;2.03;;;;;;;29.16;44.23;98792.63;5025296;28;20037;-66
2021/09/12 09:56:46;;;;;;;4.53;1.73;;;;;;;28.97;44.78;98791.72;5025330;28;20041;-66
2021/09/12 09:59:14;;;;;;;7.43;1.48;;;;;;;29.12;42.17;98795.78;5025272;28;20036;-66
2021/09/12 10:01:41;;;;;;;5.10;1.92;;;;;;;27.88;43.44;98795.28;5025227;28;20025;-66
2021/09/12 10:04:06;;;;;;;2.45;1.67;;;;;;;28.32;42.81;98786.78;5025095;28;20085;-66
2021/09/12 10:06:32;;;;;;;4.00;1.48;;;;;;;28.61;42.29;98778.81;5024924;28;20057;-66
2021/09/12 10:08:58;;;;;;;4.20;1.75;;;;;;;28.55;42.83;98777.50;5025105;28;20025;-66
2021/09/12 10:11:24;;;;;;;8.40;1.73;;;;;;;28.60;42.88;98780.66;5025296;28;20026;-66
2021/09/12 10:13:51;;;;;;;5.57;1.67;;;;;;;28.45;41.53;98783.88;5025054;28;20028;-67
2021/09/12 10:16:18;;;;;;;4.07;1.38;;;;;;;28.53;42.46;98778.63;5025052;28;20278;-66
2021/09/12 10:18:44;;;;;;;5.20;1.58;;;;;;;28.58;43.51;98777.25;5024929;28;20025;-66
2021/09/12 10:21:27;;;;;;;3.22;1.70;;;;;;;28.26;44.49;98775.66;5024890;28;20262;-66
2021/09/12 10:24:04;;;;;;;4.65;1.75;;;;;;;28.42;41.37;98771.47;5024843;28;20104;-66
2021/09/12 10:26:33;;;;;;;4.95;1.73;;;;;;;27.74;42.86;98768.50;5024755;28;20097;-66
2021/09/12 10:28:59;;;;;;;4.10;1.88;;;;;;;26.91;44.36;98772.09;5007235;28;20034;-66
2021/09/12 10:31:27;;;;;;;4.78;1.70;;;;;;;26.64;46.50;98775.22;5024692;28;20026;-66
2021/09/12 10:34:12;;;;;;;7.65;1.67;;;;;;;27.10;46.10;98767.72;5024649;28;20367;-66
2021/09/12 10:36:40;;;;;;;4.97;1.60;;;;;;;27.49;44.74;98768.91;5024661;28;20040;-66
2021/09/12 10:39:32;;;;;;;3.00;1.45;;;;;;;27.87;43.62;98761.06;5024588;28;20060;-66
2021/09/12 10:42:03;;;;;;;;;;;;;;;27.83;44.29;98764.16;5025023;28;20252;-66
2021/09/12 10:44:29;;;;;;;2.75;1.80;;;;;;;27.94;44.38;98758.69;5024471;28;20101;-66
2021/09/12 10:47:05;;;;;;;3.17;1.77;;;;;;;27.26;46.54;98751.09;5024502;28;20036;-66
2021/09/12 10:49:30;;;;;;;3.55;1.75;;;;;;;26.36;47.86;98750.59;5024740;28;20056;-66
2021/09/12 10:51:56;;;;;;;5.60;2.15;;;;;;;25.88;49.63;98758.03;5024378;28;20217;-66
2021/09/12 10:54:21;;;;;;;5.30;1.85;;;;;;;26.85;46.24;98753.69;5024415;28;20025;-66
2021/09/12 10:57:04;;;;;;;3.67;1.88;;;;;;;27.28;45.49;98749.13;5024351;28;20064;-66
2021/09/12 10:59:31;;;;;;;3.47;1.70;;;;;;;27.53;45.52;98746.03;5024364;28;20025;-66
2021/09/12 11:01:56;;;;;;;3.08;1.75;;;;;;;27.34;45.92;98747.75;5024276;28;20347;-66
2021/09/12 11:04:32;;;;;;;3.38;1.98;;;;;;;26.66;46.59;98745.41;5006151;28;20081;-66
2021/09/12 11:07:03;;;;;;;3.38;1.60;;;;;;;26.06;47.58;98748.50;5024279;28;20049;-66
2021/09/12 11:09:28;;;;;;;6.18;1.95;;;;;;;25.35;51.04;98737.13;5024263;28;20022;-66
2021/09/12 11:11:57;;;;;;;3.30;1.80;;;;;;;25.36;48.91;98741.53;5024180;28;20145;-66
2021/09/12 11:14:23;;;;;;;5.45;1.90;;;;;;;25.38;49.65;98744.09;5024145;28;20038;-66
2021/09/12 11:16:49;;;;;;;2.13;1.70;;;;;;;25.30;51.54;98734.75;5024105;28;20076;-66
2021/09/12 11:19:15;;;;;;;3.58;1.85;;;;;;;25.01;51.60;98733.44;5024315;28;20372;-66
2021/09/12 11:21:59;;;;;;;3.03;1.60;;;;;;;25.42;49.99;98734.81;5024098;28;20228;-66
2021/09/12 11:24:30;;;;;;;2.75;1.75;;;;;;;25.21;51.65;98732.75;5024028;28;20030;-66
2021/09/12 11:27:03;;;;;;;2.40;1.50;;;;;;;25.33;47.75;98727.41;5024100;28;20094;-66
2021/09/12 11:29:47;;;;;;;2.97;1.70;;;;;;;25.53;48.30;98726.75;5024036;28;20064;-66
2021/09/12 11:32:15;;;;;;;4.07;1.50;;;;;;;25.87;50.80;98723.09;5024037;28;20022;-66
2021/09/12 11:34:42;;;;;;;3.15;1.67;;;;;;;26.03;47.96;98719.09;5023920;28;20242;-66